• Join FlightAware (Why Join?)
  • Login
  • US Flag 
06:35AM EDT


 

Airport Tracker/Info


-or-


 

Live Flight TrackerFlight Track Log ✈ ASQ4233 ✈ 11-May-2013 ✈ KBTV - KEWR

Flight Track Log - Related Links

Times and Time Zones

All times are in EDT time to prevent confusion due to time zone crossing. See the ASQ4233 flight status page for this flight to view local times or setup timezone preferences in your user account.

Time Position Orientation Groundspeed Altitude Reporting Facility
EDT Latitude Longitude Course Direction KTS MPH feet Rate Location/Type
10:08AM 44.3550 -73.1456 194° South 197 227 5,100  Level Boston Center
10:09AM 44.2881 -73.1708 195° South 235 270 7,500 2,280 Climbing Boston Center
10:10AM 44.1292 -73.2677 190° South  Level FlightAware Approximate
10:10AM 44.2192 -73.1992 196° South 256 295 9,700  Level Boston Center
10:11AM 44.0606 -73.2858 196° South  Level FlightAware Approximate
10:11AM 44.1481 -73.2300 197° South 264 304 11,500  Level Boston Center
10:12AM 43.9934 -73.3127 196° South  Level FlightAware Approximate
10:12AM 44.0667 -73.2636 197° South 289 333 12,500  Level Boston Center
10:13AM 43.9914 -73.3203 208° Southwest 313 360 14,200 1,800 Climbing Boston Center
10:14AM 43.9178 -73.3825 211° Southwest 319 367 16,200 2,100 Climbing Boston Center
10:15AM 43.8486 -73.4447 213° Southwest 314 361 18,500 1,800 Climbing Boston Center
10:16AM 43.7689 -73.4867 201° Southwest 302 348 19,900 1,200 Climbing Boston Center
10:17AM 43.6833 -73.5139 193° South 309 356 20,900 780 Climbing Boston Center
10:18AM 43.5872 -73.5408 191° South 339 390 21,500 480 Climbing Boston Center
10:19AM 43.4869 -73.5733 193° South 361 415 21,900 240 Climbing Boston Center
10:20AM 43.3822 -73.6083 194° South 375 432 22,000  Climbing Boston Center
10:21AM 43.2736 -73.6378 191° South 391 450 22,000  Level Boston Center
10:22AM 43.1669 -73.6728 193° South 396 456 22,000 -480 Level Boston Center
10:23AM 43.0581 -73.7103 194° South 401 461 21,100 -1,500 Descending Boston Center
10:24AM 42.9558 -73.7394 192° South 391 450 19,000 -2,160 Descending Boston Center
10:25AM 42.8572 -73.7742 194° South 372 428 16,800 -2,100 Descending Boston Center
10:26AM 42.7569 -73.8031 192° South 372 428 14,900 -1,320 Descending Boston Center
10:27AM 42.6606 -73.8461 198° South 372 428 14,000 -420 Descending Boston Center
10:28AM 42.5475 -73.8942 197° South 365 420 14,000 -60 Level Boston Center
10:29AM 42.4594 -73.9317 197° South 365 420 13,900 -60 Descending Boston Center
10:30AM 42.3567 -73.9797 199° South 365 420 13,900  Level Boston Center
10:31AM 42.2686 -74.0169 197° South 365 420 13,900  Level Boston Center
10:32AM 42.1658 -74.0647 199° South 365 420 13,900  Level Boston Center
10:33AM 42.0733 -74.1069 199° South 365 420 13,900  Level Boston Center
10:34AM 41.9833 -74.1439 197° South 354 407 14,000  Climbing Boston Center
10:35AM 41.9014 -74.1806 198° South 349 402 14,000 -600 Level Boston Center
10:36AM 41.7903 -74.2278 198° South 342 394 12,800 -1,500 Descending Boston Center
10:37AM 41.7147 -74.2617 199° South 302 348 11,100 -1,500 Descending Boston Center
10:38AM 41.6453 -74.2931 199° South 280 322 9,900 -1,080 Descending Boston Center
10:39AM 41.5781 -74.3217 198° South 264 304 9,000 -780 Descending Boston Center
10:40AM 41.5111 -74.3475 196° South 264 304 8,400 -720 Descending Boston Center
10:42AM 41.3833 -74.3833 192° South 245 282 7,000 -720 Descending New York TRACON
10:43AM 41.3167 -74.3500 159° South 259 298 6,400 -840 Descending New York TRACON
10:44AM 41.2500 -74.3167 159° South 258 297 5,400 -780 Descending New York TRACON
10:45AM 41.1833 -74.2833 159° South 248 285 5,000 -240 Descending New York TRACON
10:46AM 41.1167 -74.2333 151° Southeast 253 291 5,000  Level New York TRACON
10:47AM 41.0667 -74.2000 153° Southeast 257 296 5,000 -480 Level New York TRACON
10:48AM 41.0000 -74.1500 150° Southeast 253 291 4,100 -540 Descending New York TRACON
10:49AM 40.9333 -74.1167 159° South 248 285 4,000 -480 Descending New York TRACON
10:50AM 40.8833 -74.0833 153° Southeast 255 293 3,200 -660 Descending New York TRACON
10:51AM 40.8333 -74.0833 180° South 199 229 2,900 -660 Descending New York TRACON
10:52AM 40.7833 -74.1000 194° South 169 194 2,000 -900 Descending New York TRACON